createdAt,value
2019-01-19T00:00:28.489Z,2.20
2019-01-19T00:03:27.573Z,2.10
2019-01-19T00:07:05.501Z,2.00
2019-01-19T00:09:50.437Z,2.20
2019-01-19T00:12:56.663Z,2.10
2019-01-19T00:15:39.725Z,2.30
2019-01-19T00:19:32.921Z,2.30
2019-01-19T00:22:25.508Z,2.80
2019-01-19T00:25:32.114Z,2.30
2019-01-19T00:28:20.204Z,2.60
2019-01-19T00:31:04.844Z,2.30
2019-01-19T00:34:21.681Z,2.40
2019-01-19T00:37:12.526Z,2.20
2019-01-19T00:41:01.523Z,2.20
2019-01-19T00:44:35.383Z,2.30
2019-01-19T00:47:42.194Z,2.30
2019-01-19T00:51:08.744Z,2.50
2019-01-19T00:53:48.153Z,2.70
2019-01-19T00:56:57.481Z,2.50
2019-01-19T00:59:31.656Z,2.70
2019-01-19T01:02:46.547Z,2.80
2019-01-19T01:05:25.643Z,2.60
2019-01-19T01:09:03.789Z,2.60
2019-01-19T01:16:02.739Z,2.50
2019-01-19T01:19:30.248Z,2.50
2019-01-19T01:23:18.032Z,2.60
2019-01-19T01:26:47.498Z,2.60
2019-01-19T01:30:08.205Z,2.40
2019-01-19T01:33:27.836Z,2.40
2019-01-19T01:36:50.794Z,2.60
2019-01-19T01:43:30.460Z,2.30
2019-01-19T01:47:04.530Z,2.50
2019-01-19T01:49:52.323Z,2.30
2019-01-19T01:53:09.114Z,2.30
2019-01-19T01:55:44.137Z,2.30
2019-01-19T01:59:07.655Z,2.40
2019-01-19T02:02:31.366Z,2.40
2019-01-19T02:06:11.176Z,2.20
2019-01-19T02:09:33.808Z,2.40
2019-01-19T02:13:23.194Z,2.30
2019-01-19T02:21:33.315Z,2.10
2019-01-19T02:24:25.544Z,2.80
2019-01-19T02:27:53.675Z,2.10
2019-01-19T02:31:09.939Z,2.00
2019-01-19T02:34:18.437Z,2.00
2019-01-19T02:37:29.044Z,2.30
2019-01-19T02:40:55.503Z,2.10
2019-01-19T02:44:09.480Z,2.00
2019-01-19T02:47:41.163Z,2.00
2019-01-19T02:50:56.874Z,1.90
2019-01-19T02:54:45.131Z,2.20
2019-01-19T03:02:11.140Z,2.30
2019-01-19T03:05:23.770Z,2.30
2019-01-19T03:08:44.184Z,2.20
2019-01-19T03:12:28.745Z,2.30
2019-01-19T03:16:10.587Z,2.20
2019-01-19T03:19:08.633Z,2.30
2019-01-19T03:22:15.324Z,2.20
2019-01-19T03:25:25.113Z,2.20
2019-01-19T03:28:55.638Z,2.00
2019-01-19T03:32:20.687Z,2.10
2019-01-19T03:39:31.418Z,1.80
2019-01-19T03:42:36.149Z,1.80
2019-01-19T03:45:42.093Z,1.20
2019-01-19T03:49:09.280Z,1.30
2019-01-19T03:52:37.571Z,1.60
2019-01-19T03:56:24.657Z,1.20
2019-01-19T03:59:53.967Z,1.00
2019-01-19T04:03:01.363Z,0.90
2019-01-19T04:06:36.088Z,0.80
2019-01-19T04:10:16.005Z,0.60
2019-01-19T04:13:30.029Z,0.80
2019-01-19T04:16:54.295Z,0.80
2019-01-19T04:20:11.284Z,0.30
2019-01-19T04:22:49.459Z,0.50
2019-01-19T04:25:54.286Z,0.40
2019-01-19T04:28:24.857Z,0.10
2019-01-19T04:30:52.842Z,0.30
2019-01-19T04:33:20.677Z,0.40
2019-01-19T04:35:48.477Z,-0.60
2019-01-19T04:38:16.413Z,0.30
2019-01-19T04:40:44.390Z,0.40
2019-01-19T04:43:12.349Z,0.10
2019-01-19T04:45:40.130Z,0.20
2019-01-19T04:48:07.916Z,-0.10
2019-01-19T04:50:35.857Z,0.00
2019-01-19T04:53:03.947Z,0.00
2019-01-19T04:55:32.029Z,-0.10
2019-01-19T04:57:59.834Z,0.20
2019-01-19T05:00:27.624Z,0.10
2019-01-19T05:02:55.523Z,-0.30
2019-01-19T05:05:23.511Z,-0.20
2019-01-19T05:07:51.470Z,0.40
2019-01-19T05:10:19.464Z,0.00
2019-01-19T05:12:47.417Z,0.50
2019-01-19T05:15:20.501Z,0.20
2019-01-19T05:17:48.846Z,0.10
2019-01-19T05:20:17.829Z,0.00
2019-01-19T05:22:45.959Z,0.20
2019-01-19T05:25:14.069Z,0.30
2019-01-19T05:27:43.783Z,0.20
2019-01-19T05:30:15.787Z,0.00
2019-01-19T05:32:43.995Z,0.20
2019-01-19T05:35:12.071Z,-0.30
2019-01-19T05:37:39.993Z,-0.10
2019-01-19T05:40:09.547Z,-0.10
2019-01-19T05:42:37.758Z,-0.30
2019-01-19T05:45:07.394Z,-0.20
2019-01-19T05:47:35.208Z,-0.60
2019-01-19T05:50:05.750Z,-0.50
2019-01-19T05:52:33.577Z,-0.20
2019-01-19T05:55:01.403Z,-0.30
2019-01-19T05:57:29.683Z,-0.30
2019-01-19T05:59:57.670Z,-0.30
2019-01-19T06:02:28.551Z,-0.60
2019-01-19T06:04:56.345Z,-0.40
2019-01-19T06:07:24.462Z,-0.50
2019-01-19T06:09:52.362Z,-0.80
2019-01-19T06:12:20.134Z,-0.80
2019-01-19T06:14:48.157Z,-0.70
2019-01-19T06:17:15.956Z,-0.40
2019-01-19T06:19:44.641Z,-0.50
2019-01-19T06:22:13.162Z,-0.70
2019-01-19T06:24:40.956Z,-1.00
2019-01-19T06:27:08.926Z,-0.70
2019-01-19T06:29:36.733Z,-0.40
2019-01-19T06:32:04.550Z,-0.90
2019-01-19T06:34:34.104Z,-0.50
2019-01-19T06:37:04.248Z,-0.50
2019-01-19T06:39:32.047Z,-0.50
2019-01-19T06:42:00.138Z,-0.40
2019-01-19T06:44:27.928Z,-0.40
2019-01-19T06:46:56.017Z,-0.70
2019-01-19T06:49:23.816Z,-0.70
2019-01-19T06:51:51.637Z,-0.70
2019-01-19T06:54:20.225Z,-0.60
2019-01-19T06:56:48.020Z,-0.70
2019-01-19T06:59:17.558Z,-0.50
2019-01-19T07:01:46.858Z,-0.80
2019-01-19T07:04:14.670Z,-0.90
2019-01-19T07:06:42.647Z,-0.50
2019-01-19T07:09:10.445Z,-0.80
2019-01-19T07:11:38.707Z,-0.70
2019-01-19T07:14:08.317Z,-0.70
2019-01-19T07:16:36.356Z,-0.70
2019-01-19T07:19:04.402Z,-0.60
2019-01-19T07:21:34.292Z,-0.80
2019-01-19T07:24:02.086Z,-0.90
2019-01-19T07:26:30.203Z,-0.60
2019-01-19T07:29:07.700Z,-0.90
2019-01-19T07:31:35.546Z,-0.30
2019-01-19T07:34:03.409Z,-0.90
2019-01-19T07:36:31.425Z,-1.00
2019-01-19T07:38:59.235Z,-0.80
2019-01-19T07:41:27.209Z,-1.00
2019-01-19T07:43:55.249Z,-1.10
2019-01-19T07:46:24.148Z,-0.80
2019-01-19T07:48:51.965Z,-0.70
2019-01-19T07:51:19.774Z,-1.10
2019-01-19T07:53:47.751Z,-1.10
2019-01-19T07:56:15.580Z,-0.70
2019-01-19T07:58:43.416Z,-1.00
2019-01-19T08:01:11.341Z,-0.80
2019-01-19T08:03:39.138Z,-0.90
2019-01-19T08:06:06.947Z,-0.70
2019-01-19T08:08:34.867Z,-1.10
2019-01-19T08:11:02.670Z,-0.60
2019-01-19T08:13:30.518Z,-0.60
2019-01-19T08:15:58.488Z,-0.50
2019-01-19T08:18:26.290Z,-0.70
2019-01-19T08:20:54.386Z,-1.60
2019-01-19T08:23:22.180Z,-0.80
2019-01-19T08:25:50.286Z,-0.70
2019-01-19T08:28:18.354Z,-0.80
2019-01-19T08:30:46.184Z,-1.30
2019-01-19T08:33:14.110Z,-0.60
2019-01-19T08:35:43.144Z,-0.40
2019-01-19T08:38:15.078Z,-0.20
2019-01-19T08:40:43.179Z,-0.40
2019-01-19T08:43:31.079Z,-0.50
2019-01-19T08:46:04.854Z,-0.10
2019-01-19T08:48:32.827Z,-0.40
2019-01-19T08:51:02.304Z,-0.20
2019-01-19T08:53:32.668Z,-0.10
2019-01-19T08:56:00.605Z,-0.20
2019-01-19T08:58:32.125Z,0.10
2019-01-19T09:01:05.814Z,0.00
2019-01-19T09:03:37.066Z,0.00
2019-01-19T09:06:11.220Z,0.10
2019-01-19T09:08:45.271Z,-0.10
2019-01-19T09:11:13.410Z,-0.10
2019-01-19T09:13:42.711Z,0.40
2019-01-19T09:16:19.702Z,0.20
2019-01-19T09:18:47.766Z,0.20
2019-01-19T09:21:19.521Z,0.40
2019-01-19T09:24:03.318Z,0.20
2019-01-19T09:26:34.376Z,0.30
2019-01-19T09:29:02.504Z,0.40
2019-01-19T09:31:33.462Z,0.30
2019-01-19T09:34:02.531Z,0.50
2019-01-19T09:36:32.351Z,0.80
2019-01-19T09:39:00.531Z,0.30
2019-01-19T09:41:28.450Z,0.80
2019-01-19T09:43:56.314Z,1.00
2019-01-19T09:46:24.532Z,1.20
2019-01-19T09:48:52.561Z,1.30
2019-01-19T09:51:20.408Z,1.60
2019-01-19T09:53:48.644Z,1.20
2019-01-19T09:56:16.741Z,1.50
2019-01-19T09:58:47.335Z,1.40
2019-01-19T10:01:15.211Z,1.90
2019-01-19T10:03:43.189Z,1.70
2019-01-19T10:06:10.964Z,1.60
2019-01-19T10:08:38.830Z,1.60
2019-01-19T10:11:07.370Z,1.70
2019-01-19T10:13:35.163Z,1.70
2019-01-19T10:16:05.008Z,1.80
2019-01-19T10:18:32.987Z,2.00
2019-01-19T10:21:01.183Z,2.00
2019-01-19T10:23:29.180Z,1.90
2019-01-19T10:25:56.965Z,2.20
2019-01-19T10:28:24.936Z,2.00
2019-01-19T10:30:52.869Z,2.30
2019-01-19T10:33:22.634Z,2.40
2019-01-19T10:35:50.531Z,1.80
2019-01-19T10:38:18.451Z,2.30
2019-01-19T10:40:46.338Z,2.60
2019-01-19T10:43:14.132Z,2.60
2019-01-19T10:45:41.980Z,2.90
2019-01-19T10:48:09.940Z,2.90
2019-01-19T10:50:37.710Z,2.60
2019-01-19T10:53:05.522Z,2.90
2019-01-19T10:55:33.561Z,2.90
2019-01-19T10:58:01.540Z,2.20
2019-01-19T11:00:30.095Z,2.90
2019-01-19T11:02:58.752Z,3.00
2019-01-19T11:05:27.598Z,3.40
2019-01-19T11:07:55.694Z,3.50
2019-01-19T11:10:26.903Z,3.60
2019-01-19T11:12:55.098Z,3.30
2019-01-19T11:15:24.698Z,3.30
2019-01-19T11:17:54.383Z,3.60
2019-01-19T11:20:25.687Z,3.70
2019-01-19T11:22:54.650Z,3.50
2019-01-19T11:25:22.400Z,3.90
2019-01-19T11:27:50.422Z,4.10
2019-01-19T11:30:24.204Z,4.30
2019-01-19T11:32:51.969Z,4.30
2019-01-19T11:35:19.856Z,4.40
2019-01-19T11:37:47.886Z,4.50
2019-01-19T11:40:27.924Z,4.70
2019-01-19T11:42:55.694Z,4.40
2019-01-19T11:45:23.687Z,4.70
2019-01-19T11:47:51.469Z,4.50
2019-01-19T11:50:19.351Z,4.80
2019-01-19T11:52:48.621Z,4.50
2019-01-19T11:55:19.438Z,5.00
2019-01-19T11:57:53.310Z,5.50
2019-01-19T12:00:27.220Z,5.30
2019-01-19T12:02:55.841Z,5.60
2019-01-19T12:05:23.759Z,5.80
2019-01-19T12:07:51.549Z,5.70
2019-01-19T12:10:27.590Z,5.90
2019-01-19T12:12:55.492Z,6.00
2019-01-19T12:15:23.522Z,6.00
2019-01-19T12:17:51.517Z,6.20
2019-01-19T12:20:25.547Z,6.50
2019-01-19T12:22:53.412Z,6.40
2019-01-19T12:25:22.127Z,6.70
2019-01-19T12:27:50.112Z,6.60
2019-01-19T12:30:21.236Z,6.70
2019-01-19T12:32:49.292Z,7.00
2019-01-19T12:35:17.359Z,6.90
2019-01-19T12:37:45.228Z,7.00
2019-01-19T12:40:15.604Z,6.70
2019-01-19T12:42:44.888Z,7.00
2019-01-19T12:45:23.155Z,7.20
2019-01-19T12:47:51.301Z,7.40
2019-01-19T12:50:22.379Z,7.00
2019-01-19T12:52:50.405Z,7.00
2019-01-19T12:55:20.388Z,7.60
2019-01-19T12:57:48.414Z,7.30
2019-01-19T13:00:22.645Z,7.40
2019-01-19T13:02:50.719Z,7.30
2019-01-19T13:07:05.674Z,7.60
2019-01-19T13:09:47.772Z,8.00
2019-01-19T13:12:51.256Z,7.80
2019-01-19T13:16:16.499Z,7.70
2019-01-19T13:19:27.641Z,8.10
2019-01-19T13:22:57.108Z,8.10
2019-01-19T13:26:27.895Z,8.40
2019-01-19T13:29:50.615Z,8.30
2019-01-19T13:32:52.103Z,8.20
2019-01-19T13:36:35.487Z,8.10
2019-01-19T13:39:43.117Z,8.40
2019-01-19T13:43:17.910Z,8.40
2019-01-19T13:49:55.797Z,7.70
2019-01-19T13:52:39.884Z,8.00
2019-01-19T13:56:12.217Z,8.00
2019-01-19T13:59:05.118Z,7.70
2019-01-19T14:02:21.456Z,7.80
2019-01-19T14:05:18.892Z,7.70
2019-01-19T14:08:49.255Z,7.90
2019-01-19T14:11:57.512Z,7.70
2019-01-19T14:15:20.552Z,8.20
2019-01-19T14:18:45.500Z,8.00
2019-01-19T14:22:07.133Z,8.00
2019-01-19T14:25:26.364Z,7.80
2019-01-19T14:28:47.735Z,8.00
2019-01-19T14:32:26.829Z,7.80
2019-01-19T14:35:50.728Z,7.70
2019-01-19T14:39:30.926Z,7.70
2019-01-19T14:42:48.043Z,8.00
2019-01-19T14:46:13.017Z,7.90
2019-01-19T14:53:32.508Z,7.40
2019-01-19T14:57:20.325Z,7.60
2019-01-19T15:00:52.034Z,7.00
2019-01-19T15:03:51.510Z,6.80
2019-01-19T15:06:58.199Z,7.10
2019-01-19T15:10:10.086Z,6.60
2019-01-19T15:13:44.427Z,6.70
2019-01-19T15:20:46.920Z,6.70
2019-01-19T15:24:27.343Z,6.30
2019-01-19T15:28:09.379Z,6.10
2019-01-19T15:31:55.191Z,5.90
2019-01-19T15:35:18.594Z,5.90
2019-01-19T15:38:39.923Z,5.80
2019-01-19T15:41:57.655Z,5.80
2019-01-19T15:45:29.056Z,5.50
2019-01-19T15:52:37.982Z,5.00
2019-01-19T15:56:07.160Z,5.10
2019-01-19T15:59:45.294Z,4.60
2019-01-19T16:02:53.579Z,4.80
2019-01-19T16:06:42.661Z,4.60
2019-01-19T16:10:25.027Z,4.10
2019-01-19T16:13:35.416Z,4.40
2019-01-19T16:17:02.228Z,3.70
2019-01-19T16:20:34.707Z,3.80
2019-01-19T16:24:11.497Z,3.30
2019-01-19T16:27:34.225Z,2.90
2019-01-19T16:30:50.481Z,2.80
2019-01-19T16:34:03.805Z,3.00
2019-01-19T16:37:05.540Z,2.50
2019-01-19T16:40:16.513Z,2.50
2019-01-19T16:43:48.658Z,2.50
2019-01-19T16:47:11.573Z,2.80
2019-01-19T16:50:09.926Z,2.50
2019-01-19T16:53:42.475Z,2.50
2019-01-19T16:57:01.592Z,2.50
2019-01-19T17:00:17.887Z,2.20
2019-01-19T17:03:48.716Z,2.10
2019-01-19T17:07:02.530Z,2.10
2019-01-19T17:09:49.548Z,2.10
2019-01-19T17:13:16.021Z,1.80
2019-01-19T17:16:43.930Z,1.60
2019-01-19T17:20:07.587Z,1.80
2019-01-19T17:23:47.857Z,1.80
2019-01-19T17:27:38.201Z,1.80
2019-01-19T17:30:52.346Z,1.80
2019-01-19T17:34:00.004Z,1.80
2019-01-19T17:37:05.003Z,1.30
2019-01-19T17:40:18.615Z,1.50
2019-01-19T17:43:36.841Z,1.70
2019-01-19T17:47:03.832Z,1.70
2019-01-19T17:50:18.086Z,1.60
2019-01-19T17:53:16.289Z,1.60
2019-01-19T17:56:33.543Z,1.30
2019-01-19T17:59:52.298Z,1.60
2019-01-19T18:03:12.218Z,1.20
2019-01-19T18:06:21.600Z,1.20
2019-01-19T18:09:56.947Z,1.30
2019-01-19T18:13:21.199Z,1.00
2019-01-19T18:16:55.285Z,1.20
2019-01-19T18:24:25.800Z,1.30
2019-01-19T18:28:13.217Z,0.60
2019-01-19T18:31:44.760Z,0.90
2019-01-19T18:35:24.733Z,0.80
2019-01-19T18:38:46.217Z,0.90
2019-01-19T18:42:13.356Z,0.90
2019-01-19T18:46:01.629Z,0.80
2019-01-19T18:49:22.331Z,1.00
2019-01-19T18:52:36.605Z,0.70
2019-01-19T18:56:06.561Z,0.70
2019-01-19T18:59:03.120Z,0.70
2019-01-19T19:02:37.133Z,0.70
2019-01-19T19:06:06.243Z,0.50
2019-01-19T19:09:14.958Z,0.10
2019-01-19T19:13:14.634Z,0.50
2019-01-19T19:16:43.597Z,0.30
2019-01-19T19:19:56.185Z,0.60
2019-01-19T19:23:01.736Z,0.40
2019-01-19T19:30:17.830Z,0.40
2019-01-19T19:33:42.049Z,0.60
2019-01-19T19:36:51.343Z,0.20
2019-01-19T19:40:40.259Z,0.60
2019-01-19T19:43:51.501Z,0.50
2019-01-19T19:46:51.360Z,0.40
2019-01-19T19:50:54.125Z,0.10
2019-01-19T19:53:21.943Z,0.50
2019-01-19T19:55:48.194Z,0.10
2019-01-19T19:58:16.196Z,0.50
2019-01-19T20:00:44.114Z,0.10
2019-01-19T20:03:12.225Z,0.40
2019-01-19T20:05:40.231Z,0.20
2019-01-19T20:08:08.034Z,0.20
2019-01-19T20:10:36.937Z,0.20
2019-01-19T20:13:04.878Z,0.20
2019-01-19T20:15:32.689Z,0.00
2019-01-19T20:18:00.473Z,0.10
2019-01-19T20:20:28.493Z,0.40
2019-01-19T20:22:56.271Z,0.40
2019-01-19T20:25:24.085Z,0.20
2019-01-19T20:27:52.080Z,0.20
2019-01-19T20:30:19.885Z,0.20
2019-01-19T20:32:47.795Z,0.20
2019-01-19T20:35:15.779Z,0.40
2019-01-19T20:37:43.589Z,-0.10
2019-01-19T20:40:12.762Z,0.30
2019-01-19T20:42:40.556Z,0.10
2019-01-19T20:45:10.532Z,0.00
2019-01-19T20:47:38.433Z,0.20
2019-01-19T20:50:07.663Z,0.10
2019-01-19T20:52:35.484Z,-0.10
2019-01-19T20:55:04.086Z,0.10
2019-01-19T20:57:31.945Z,-0.20
2019-01-19T20:59:59.719Z,-0.30
2019-01-19T21:02:27.641Z,0.00
2019-01-19T21:04:55.638Z,0.20
2019-01-19T21:07:23.652Z,0.20
2019-01-19T21:09:51.653Z,0.10
2019-01-19T21:12:19.467Z,-0.30
2019-01-19T21:14:47.459Z,0.20
2019-01-19T21:17:15.559Z,-0.30
2019-01-19T21:19:43.366Z,-0.30
2019-01-19T21:22:11.489Z,-0.40
2019-01-19T21:24:40.593Z,-0.10
2019-01-19T21:27:08.553Z,0.00
2019-01-19T21:29:36.362Z,-0.40
2019-01-19T21:32:05.284Z,-0.30
2019-01-19T21:34:33.403Z,-0.20
2019-01-19T21:37:01.379Z,0.00
2019-01-19T21:39:29.216Z,-0.40
2019-01-19T21:41:57.213Z,-0.40
2019-01-19T21:44:26.378Z,-0.30
2019-01-19T21:46:54.181Z,-0.10
2019-01-19T21:49:22.156Z,-0.20
2019-01-19T21:51:50.107Z,-0.30
2019-01-19T21:54:18.166Z,-0.40
2019-01-19T21:56:46.197Z,-0.40
2019-01-19T21:59:14.082Z,-0.10
2019-01-19T22:01:41.860Z,-0.50
2019-01-19T22:04:09.796Z,-0.40
2019-01-19T22:06:37.615Z,-0.60
2019-01-19T22:09:07.021Z,-0.50
2019-01-19T22:11:34.951Z,-0.30
2019-01-19T22:14:02.756Z,-0.60
2019-01-19T22:16:30.817Z,-0.60
2019-01-19T22:18:58.766Z,-0.50
2019-01-19T22:21:26.844Z,-0.80
2019-01-19T22:23:54.721Z,-0.90
2019-01-19T22:26:23.047Z,-0.30
2019-01-19T22:28:50.883Z,-0.60
2019-01-19T22:31:18.893Z,-0.70
2019-01-19T22:33:46.662Z,-0.40
2019-01-19T22:36:14.460Z,-0.60
2019-01-19T22:38:42.442Z,-0.50
2019-01-19T22:41:10.242Z,-0.50
2019-01-19T22:43:38.200Z,-0.10
2019-01-19T22:46:06.100Z,-0.10
2019-01-19T22:48:33.898Z,-0.30
2019-01-19T22:51:01.797Z,-0.30
2019-01-19T22:53:29.884Z,0.00
2019-01-19T22:55:57.807Z,-0.20
2019-01-19T22:58:25.724Z,-0.10
2019-01-19T23:01:36.077Z,-0.20
2019-01-19T23:04:04.408Z,-0.10
2019-01-19T23:06:32.242Z,-0.40
2019-01-19T23:09:00.282Z,-0.40
2019-01-19T23:11:33.788Z,-0.50
2019-01-19T23:13:58.151Z,-0.60
2019-01-19T23:16:26.201Z,-0.20
2019-01-19T23:18:54.187Z,-0.60
2019-01-19T23:21:22.414Z,-0.70
2019-01-19T23:23:50.243Z,-0.50
2019-01-19T23:26:18.484Z,-0.50
2019-01-19T23:28:46.557Z,-0.70
2019-01-19T23:31:14.388Z,-0.60
2019-01-19T23:33:42.218Z,-0.50
2019-01-19T23:36:10.406Z,-0.10
2019-01-19T23:38:39.882Z,-0.40
2019-01-19T23:41:09.182Z,-0.70
2019-01-19T23:43:38.702Z,-0.30
2019-01-19T23:46:06.662Z,-0.70
2019-01-19T23:48:34.466Z,-0.50
2019-01-19T23:51:03.262Z,-0.40
2019-01-19T23:53:31.285Z,-0.70
2019-01-19T23:56:01.826Z,-0.30
2019-01-19T23:58:29.774Z,-0.60
